sensor_id;sensor_type;location;lat;lon;timestamp;temperature;humidity
1155;DHT22;566;48.414;9.118;2023-02-24T00:01:13;5.40;63.40
1155;DHT22;566;48.414;9.118;2023-02-24T00:03:44;5.40;63.40
1155;DHT22;566;48.414;9.118;2023-02-24T00:06:10;5.50;63.40
1155;DHT22;566;48.414;9.118;2023-02-24T00:08:40;5.50;63.40
1155;DHT22;566;48.414;9.118;2023-02-24T00:11:14;5.70;63.50
1155;DHT22;566;48.414;9.118;2023-02-24T00:13:43;5.60;63.40
1155;DHT22;566;48.414;9.118;2023-02-24T00:16:14;5.50;63.20
1155;DHT22;566;48.414;9.118;2023-02-24T00:18:44;5.40;63.30
1155;DHT22;566;48.414;9.118;2023-02-24T00:21:12;5.30;63.10
1155;DHT22;566;48.414;9.118;2023-02-24T00:23:40;5.30;63.10
1155;DHT22;566;48.414;9.118;2023-02-24T00:26:07;5.40;63.20
1155;DHT22;566;48.414;9.118;2023-02-24T00:28:34;5.40;63.20
1155;DHT22;566;48.414;9.118;2023-02-24T00:31:05;5.40;63.20
1155;DHT22;566;48.414;9.118;2023-02-24T00:33:32;5.40;63.20
1155;DHT22;566;48.414;9.118;2023-02-24T00:36:09;5.40;63.20
1155;DHT22;566;48.414;9.118;2023-02-24T00:38:37;5.50;63.10
1155;DHT22;566;48.414;9.118;2023-02-24T00:41:10;5.60;63.20
1155;DHT22;566;48.414;9.118;2023-02-24T00:43:37;5.70;63.20
1155;DHT22;566;48.414;9.118;2023-02-24T00:46:03;5.70;63.20
1155;DHT22;566;48.414;9.118;2023-02-24T00:48:36;5.60;63.10
1155;DHT22;566;48.414;9.118;2023-02-24T00:51:08;5.60;63.00
1155;DHT22;566;48.414;9.118;2023-02-24T00:53:38;5.60;63.00
1155;DHT22;566;48.414;9.118;2023-02-24T00:56:08;5.70;63.10
1155;DHT22;566;48.414;9.118;2023-02-24T00:58:37;5.80;63.20
1155;DHT22;566;48.414;9.118;2023-02-24T01:01:03;5.90;63.20
1155;DHT22;566;48.414;9.118;2023-02-24T01:03:30;6.10;63.30
1155;DHT22;566;48.414;9.118;2023-02-24T01:06:00;6.00;63.20
1155;DHT22;566;48.414;9.118;2023-02-24T01:08:27;5.90;63.00
1155;DHT22;566;48.414;9.118;2023-02-24T01:10:59;5.80;62.90
1155;DHT22;566;48.414;9.118;2023-02-24T01:13:44;5.80;62.80
1155;DHT22;566;48.414;9.118;2023-02-24T01:16:11;5.70;62.90
1155;DHT22;566;48.414;9.118;2023-02-24T01:18:44;5.80;62.90
1155;DHT22;566;48.414;9.118;2023-02-24T01:21:16;5.90;63.00
1155;DHT22;566;48.414;9.118;2023-02-24T01:23:42;6.00;63.00
1155;DHT22;566;48.414;9.118;2023-02-24T01:26:08;6.00;63.00
1155;DHT22;566;48.414;9.118;2023-02-24T01:28:35;6.00;62.90
1155;DHT22;566;48.414;9.118;2023-02-24T01:31:03;5.90;62.90
1155;DHT22;566;48.414;9.118;2023-02-24T01:33:31;5.90;62.80
1155;DHT22;566;48.414;9.118;2023-02-24T01:36:11;5.80;62.80
1155;DHT22;566;48.414;9.118;2023-02-24T01:38:37;5.80;62.70
1155;DHT22;566;48.414;9.118;2023-02-24T01:41:07;5.80;62.80
1155;DHT22;566;48.414;9.118;2023-02-24T01:46:19;5.80;62.70
1155;DHT22;566;48.414;9.118;2023-02-24T01:48:51;5.90;62.80
1155;DHT22;566;48.414;9.118;2023-02-24T01:51:18;5.90;62.80
1155;DHT22;566;48.414;9.118;2023-02-24T01:53:45;6.00;62.80
1155;DHT22;566;48.414;9.118;2023-02-24T01:56:14;6.00;62.70
1155;DHT22;566;48.414;9.118;2023-02-24T01:58:40;6.10;62.60
1155;DHT22;566;48.414;9.118;2023-02-24T02:01:07;6.20;62.70
1155;DHT22;566;48.414;9.118;2023-02-24T02:03:37;6.00;63.10
1155;DHT22;566;48.414;9.118;2023-02-24T02:06:07;5.90;62.50
1155;DHT22;566;48.414;9.118;2023-02-24T02:08:35;6.00;62.70
1155;DHT22;566;48.414;9.118;2023-02-24T02:11:06;5.90;62.80
1155;DHT22;566;48.414;9.118;2023-02-24T02:13:33;5.80;62.80
1155;DHT22;566;48.414;9.118;2023-02-24T02:21:50;5.80;62.70
1155;DHT22;566;48.414;9.118;2023-02-24T02:24:50;5.80;62.70
1155;DHT22;566;48.414;9.118;2023-02-24T02:27:57;6.00;62.70
1155;DHT22;566;48.414;9.118;2023-02-24T02:41:51;6.00;62.70
1155;DHT22;566;48.414;9.118;2023-02-24T02:44:23;5.90;62.70
1155;DHT22;566;48.414;9.118;2023-02-24T02:47:15;5.90;62.80
1155;DHT22;566;48.414;9.118;2023-02-24T02:49:50;5.90;62.70
1155;DHT22;566;48.414;9.118;2023-02-24T02:52:23;5.90;62.70
1155;DHT22;566;48.414;9.118;2023-02-24T02:55:06;5.90;62.70
1155;DHT22;566;48.414;9.118;2023-02-24T02:57:38;6.00;62.70
1155;DHT22;566;48.414;9.118;2023-02-24T03:00:11;6.10;62.50
1155;DHT22;566;48.414;9.118;2023-02-24T03:03:05;6.20;62.50
1155;DHT22;566;48.414;9.118;2023-02-24T03:05:45;6.20;62.70
1155;DHT22;566;48.414;9.118;2023-02-24T03:08:16;6.10;62.80
1155;DHT22;566;48.414;9.118;2023-02-24T03:10:44;6.10;62.50
1155;DHT22;566;48.414;9.118;2023-02-24T03:13:17;6.20;62.50
1155;DHT22;566;48.414;9.118;2023-02-24T03:15:48;6.30;62.40
1155;DHT22;566;48.414;9.118;2023-02-24T03:18:19;6.30;62.50
1155;DHT22;566;48.414;9.118;2023-02-24T03:20:51;6.40;62.50
1155;DHT22;566;48.414;9.118;2023-02-24T03:23:25;6.30;62.60
1155;DHT22;566;48.414;9.118;2023-02-24T03:26:09;6.30;62.60
1155;DHT22;566;48.414;9.118;2023-02-24T03:28:57;6.20;63.00
1155;DHT22;566;48.414;9.118;2023-02-24T03:31:30;6.00;63.10
1155;DHT22;566;48.414;9.118;2023-02-24T03:34:14;5.90;62.80
1155;DHT22;566;48.414;9.118;2023-02-24T03:36:42;5.90;62.80
1155;DHT22;566;48.414;9.118;2023-02-24T03:39:09;5.80;62.80
1155;DHT22;566;48.414;9.118;2023-02-24T03:42:06;5.80;62.70
1155;DHT22;566;48.414;9.118;2023-02-24T03:44:33;5.80;62.70
1155;DHT22;566;48.414;9.118;2023-02-24T03:47:01;5.80;62.60
1155;DHT22;566;48.414;9.118;2023-02-24T03:49:26;5.80;62.60
1155;DHT22;566;48.414;9.118;2023-02-24T03:52:08;5.80;62.70
1155;DHT22;566;48.414;9.118;2023-02-24T04:00:12;5.90;62.60
1155;DHT22;566;48.414;9.118;2023-02-24T04:02:57;5.90;62.70
1155;DHT22;566;48.414;9.118;2023-02-24T04:05:32;6.00;62.70
1155;DHT22;566;48.414;9.118;2023-02-24T04:08:06;6.00;62.50
1155;DHT22;566;48.414;9.118;2023-02-24T04:10:46;6.10;62.60
1155;DHT22;566;48.414;9.118;2023-02-24T04:13:36;6.10;62.70
1155;DHT22;566;48.414;9.118;2023-02-24T04:16:18;6.10;62.60
1155;DHT22;566;48.414;9.118;2023-02-24T04:18:56;6.00;62.60
1155;DHT22;566;48.414;9.118;2023-02-24T04:21:26;6.10;62.60
1155;DHT22;566;48.414;9.118;2023-02-24T04:23:53;6.00;62.70
1155;DHT22;566;48.414;9.118;2023-02-24T04:26:20;6.00;62.70
1155;DHT22;566;48.414;9.118;2023-02-24T04:28:46;5.90;62.70
1155;DHT22;566;48.414;9.118;2023-02-24T04:31:16;6.00;62.50
1155;DHT22;566;48.414;9.118;2023-02-24T04:33:46;6.00;62.60
1155;DHT22;566;48.414;9.118;2023-02-24T04:36:16;5.90;62.80
1155;DHT22;566;48.414;9.118;2023-02-24T04:38:41;5.90;62.70
1155;DHT22;566;48.414;9.118;2023-02-24T04:41:08;5.80;62.80
1155;DHT22;566;48.414;9.118;2023-02-24T04:43:36;5.80;62.70
1155;DHT22;566;48.414;9.118;2023-02-24T04:46:03;5.80;62.70
1155;DHT22;566;48.414;9.118;2023-02-24T04:48:33;5.80;62.70
1155;DHT22;566;48.414;9.118;2023-02-24T04:50:59;5.80;62.80
1155;DHT22;566;48.414;9.118;2023-02-24T04:53:31;5.70;62.90
1155;DHT22;566;48.414;9.118;2023-02-24T04:56:04;5.80;62.50
1155;DHT22;566;48.414;9.118;2023-02-24T04:58:38;5.90;62.60
1155;DHT22;566;48.414;9.118;2023-02-24T05:01:09;5.90;62.60
1155;DHT22;566;48.414;9.118;2023-02-24T05:03:35;5.90;63.00
1155;DHT22;566;48.414;9.118;2023-02-24T05:06:02;5.80;62.70
1155;DHT22;566;48.414;9.118;2023-02-24T05:08:29;5.80;62.80
1155;DHT22;566;48.414;9.118;2023-02-24T05:10:55;5.80;62.70
1155;DHT22;566;48.414;9.118;2023-02-24T05:13:25;5.80;62.90
1155;DHT22;566;48.414;9.118;2023-02-24T05:16:04;5.80;62.90
1155;DHT22;566;48.414;9.118;2023-02-24T05:18:31;5.80;62.70
1155;DHT22;566;48.414;9.118;2023-02-24T05:21:08;5.80;63.20
1155;DHT22;566;48.414;9.118;2023-02-24T05:23:53;5.80;63.30
1155;DHT22;566;48.414;9.118;2023-02-24T05:26:20;5.80;63.10
1155;DHT22;566;48.414;9.118;2023-02-24T05:28:48;5.80;63.00
1155;DHT22;566;48.414;9.118;2023-02-24T05:31:25;5.80;63.10
1155;DHT22;566;48.414;9.118;2023-02-24T05:33:57;5.80;63.20
1155;DHT22;566;48.414;9.118;2023-02-24T05:36:25;5.80;63.10
1155;DHT22;566;48.414;9.118;2023-02-24T05:38:54;5.70;63.00
1155;DHT22;566;48.414;9.118;2023-02-24T05:41:25;5.70;63.00
1155;DHT22;566;48.414;9.118;2023-02-24T05:43:57;5.70;63.00
1155;DHT22;566;48.414;9.118;2023-02-24T05:46:27;5.60;63.00
1155;DHT22;566;48.414;9.118;2023-02-24T05:48:54;5.50;63.40
1155;DHT22;566;48.414;9.118;2023-02-24T05:51:31;5.40;63.40
1155;DHT22;566;48.414;9.118;2023-02-24T05:54:07;5.40;63.20
1155;DHT22;566;48.414;9.118;2023-02-24T05:56:35;5.30;63.10
1155;DHT22;566;48.414;9.118;2023-02-24T05:59:02;5.40;62.90
1155;DHT22;566;48.414;9.118;2023-02-24T06:01:29;5.40;62.90
1155;DHT22;566;48.414;9.118;2023-02-24T06:03:57;5.40;63.10
1155;DHT22;566;48.414;9.118;2023-02-24T06:09:03;5.10;63.40
1155;DHT22;566;48.414;9.118;2023-02-24T06:11:41;5.10;63.30
1155;DHT22;566;48.414;9.118;2023-02-24T06:14:08;5.10;62.90
1155;DHT22;566;48.414;9.118;2023-02-24T06:16:36;5.20;62.70
1155;DHT22;566;48.414;9.118;2023-02-24T06:19:03;5.40;62.70
1155;DHT22;566;48.414;9.118;2023-02-24T06:21:37;5.40;63.00
1155;DHT22;566;48.414;9.118;2023-02-24T06:24:08;5.40;62.90
1155;DHT22;566;48.414;9.118;2023-02-24T06:26:34;5.30;62.80
1155;DHT22;566;48.414;9.118;2023-02-24T06:29:01;5.40;62.80
1155;DHT22;566;48.414;9.118;2023-02-24T06:31:28;5.40;62.80
1155;DHT22;566;48.414;9.118;2023-02-24T06:33:54;5.40;62.70
1155;DHT22;566;48.414;9.118;2023-02-24T06:36:21;5.60;62.60
1155;DHT22;566;48.414;9.118;2023-02-24T06:38:47;5.60;62.70
1155;DHT22;566;48.414;9.118;2023-02-24T06:41:14;5.70;62.50
1155;DHT22;566;48.414;9.118;2023-02-24T06:43:42;5.80;62.70
1155;DHT22;566;48.414;9.118;2023-02-24T06:46:09;5.80;62.70
1155;DHT22;566;48.414;9.118;2023-02-24T06:48:35;5.80;62.60
1155;DHT22;566;48.414;9.118;2023-02-24T06:51:13;5.90;62.60
1155;DHT22;566;48.414;9.118;2023-02-24T06:53:40;6.00;62.50
1155;DHT22;566;48.414;9.118;2023-02-24T06:56:16;6.10;62.50
1155;DHT22;566;48.414;9.118;2023-02-24T06:58:51;6.20;62.60
1155;DHT22;566;48.414;9.118;2023-02-24T07:01:19;6.20;62.60
1155;DHT22;566;48.414;9.118;2023-02-24T07:03:46;6.20;62.60
1155;DHT22;566;48.414;9.118;2023-02-24T07:06:34;6.20;62.50
1155;DHT22;566;48.414;9.118;2023-02-24T07:09:07;6.20;62.70
1155;DHT22;566;48.414;9.118;2023-02-24T07:11:34;6.20;62.50
1155;DHT22;566;48.414;9.118;2023-02-24T07:14:00;6.20;62.70
1155;DHT22;566;48.414;9.118;2023-02-24T07:16:27;6.20;62.70
1155;DHT22;566;48.414;9.118;2023-02-24T07:18:54;6.20;62.90
1155;DHT22;566;48.414;9.118;2023-02-24T07:21:22;6.20;62.70
1155;DHT22;566;48.414;9.118;2023-02-24T07:23:48;6.20;63.00
1155;DHT22;566;48.414;9.118;2023-02-24T07:26:17;6.10;63.30
1155;DHT22;566;48.414;9.118;2023-02-24T07:28:44;6.00;64.00
1155;DHT22;566;48.414;9.118;2023-02-24T07:31:12;6.00;63.60
1155;DHT22;566;48.414;9.118;2023-02-24T07:33:38;6.10;63.50
1155;DHT22;566;48.414;9.118;2023-02-24T07:36:06;6.20;63.50
1155;DHT22;566;48.414;9.118;2023-02-24T07:38:39;6.10;64.00
1155;DHT22;566;48.414;9.118;2023-02-24T07:41:06;6.00;64.80
1155;DHT22;566;48.414;9.118;2023-02-24T07:43:33;6.00;64.70
1155;DHT22;566;48.414;9.118;2023-02-24T07:46:13;6.00;63.60
1155;DHT22;566;48.414;9.118;2023-02-24T07:48:39;6.20;63.50
1155;DHT22;566;48.414;9.118;2023-02-24T07:51:16;6.30;64.20
1155;DHT22;566;48.414;9.118;2023-02-24T07:53:51;6.20;64.20
1155;DHT22;566;48.414;9.118;2023-02-24T07:56:21;6.30;64.00
1155;DHT22;566;48.414;9.118;2023-02-24T07:59:06;6.40;63.70
1155;DHT22;566;48.414;9.118;2023-02-24T08:01:37;6.40;64.40
1155;DHT22;566;48.414;9.118;2023-02-24T08:04:07;6.30;65.40
1155;DHT22;566;48.414;9.118;2023-02-24T08:06:35;6.30;65.20
1155;DHT22;566;48.414;9.118;2023-02-24T08:09:06;6.30;65.00
1155;DHT22;566;48.414;9.118;2023-02-24T08:11:50;6.50;65.10
1155;DHT22;566;48.414;9.118;2023-02-24T08:14:25;6.60;67.00
1155;DHT22;566;48.414;9.118;2023-02-24T08:16:53;6.80;67.90
1155;DHT22;566;48.414;9.118;2023-02-24T08:19:30;6.90;70.10
1155;DHT22;566;48.414;9.118;2023-02-24T08:22:07;7.10;70.40
1155;DHT22;566;48.414;9.118;2023-02-24T08:24:58;7.30;74.20
1155;DHT22;566;48.414;9.118;2023-02-24T08:27:33;7.20;78.60
1155;DHT22;566;48.414;9.118;2023-02-24T08:30:03;7.40;78.70
1155;DHT22;566;48.414;9.118;2023-02-24T08:32:38;8.20;78.00
1155;DHT22;566;48.414;9.118;2023-02-24T08:35:12;8.60;91.00
1155;DHT22;566;48.414;9.118;2023-02-24T08:37:51;8.20;95.80
1155;DHT22;566;48.414;9.118;2023-02-24T08:40:27;7.70;91.90
1155;DHT22;566;48.414;9.118;2023-02-24T08:43:10;7.10;91.60
1155;DHT22;566;48.414;9.118;2023-02-24T08:48:45;6.80;87.40
1155;DHT22;566;48.414;9.118;2023-02-24T08:51:21;6.80;87.10
1155;DHT22;566;48.414;9.118;2023-02-24T08:53:49;6.80;85.40
1155;DHT22;566;48.414;9.118;2023-02-24T08:56:19;7.00;85.70
1155;DHT22;566;48.414;9.118;2023-02-24T08:58:49;7.20;87.80
1155;DHT22;566;48.414;9.118;2023-02-24T09:01:18;7.20;89.60
1155;DHT22;566;48.414;9.118;2023-02-24T09:03:50;7.30;88.60
1155;DHT22;566;48.414;9.118;2023-02-24T09:06:18;7.30;89.10
1155;DHT22;566;48.414;9.118;2023-02-24T09:08:51;7.50;88.80
1155;DHT22;566;48.414;9.118;2023-02-24T09:11:38;7.80;92.30
1155;DHT22;566;48.414;9.118;2023-02-24T09:14:12;8.00;92.00
1155;DHT22;566;48.414;9.118;2023-02-24T09:16:44;8.10;96.40
1155;DHT22;566;48.414;9.118;2023-02-24T09:22:05;8.20;96.70
1155;DHT22;566;48.414;9.118;2023-02-24T09:24:40;8.20;97.40
1155;DHT22;566;48.414;9.118;2023-02-24T09:27:06;8.10;97.60
1155;DHT22;566;48.414;9.118;2023-02-24T09:29:41;8.00;95.40
1155;DHT22;566;48.414;9.118;2023-02-24T09:32:15;8.20;96.20
1155;DHT22;566;48.414;9.118;2023-02-24T09:34:45;8.20;96.00
1155;DHT22;566;48.414;9.118;2023-02-24T09:37:13;8.30;96.90
1155;DHT22;566;48.414;9.118;2023-02-24T09:39:58;8.20;97.70
1155;DHT22;566;48.414;9.118;2023-02-24T09:42:44;8.10;96.60
1155;DHT22;566;48.414;9.118;2023-02-24T09:45:20;8.10;96.00
1155;DHT22;566;48.414;9.118;2023-02-24T09:48:01;8.00;96.60
1155;DHT22;566;48.414;9.118;2023-02-24T09:50:37;7.80;95.30
1155;DHT22;566;48.414;9.118;2023-02-24T09:53:14;7.60;94.40
1155;DHT22;566;48.414;9.118;2023-02-24T09:55:50;7.50;92.50
1155;DHT22;566;48.414;9.118;2023-02-24T10:06:52;7.30;93.10
1155;DHT22;566;48.414;9.118;2023-02-24T10:09:45;7.30;93.90
1155;DHT22;566;48.414;9.118;2023-02-24T10:12:18;7.40;93.20
1155;DHT22;566;48.414;9.118;2023-02-24T10:14:57;7.70;93.60
1155;DHT22;566;48.414;9.118;2023-02-24T10:17:52;7.90;96.70
1155;DHT22;566;48.414;9.118;2023-02-24T10:20:22;7.90;96.50
1155;DHT22;566;48.414;9.118;2023-02-24T10:26:21;8.00;97.40
1155;DHT22;566;48.414;9.118;2023-02-24T10:32:26;8.30;97.70
1155;DHT22;566;48.414;9.118;2023-02-24T10:34:24;8.30;98.00
1155;DHT22;566;48.414;9.118;2023-02-24T10:37:13;8.30;98.00
1155;DHT22;566;48.414;9.118;2023-02-24T10:39:39;8.20;98.00
1155;DHT22;566;48.414;9.118;2023-02-24T10:42:08;8.20;98.00
1155;DHT22;566;48.414;9.118;2023-02-24T10:44:48;8.20;98.00
1155;DHT22;566;48.414;9.118;2023-02-24T10:47:27;8.30;98.00
1155;DHT22;566;48.414;9.118;2023-02-24T10:49:59;8.40;98.00
1155;DHT22;566;48.414;9.118;2023-02-24T10:52:38;8.40;98.00
1155;DHT22;566;48.414;9.118;2023-02-24T10:55:44;8.30;98.00
1155;DHT22;566;48.414;9.118;2023-02-24T10:58:16;8.40;98.00
1155;DHT22;566;48.414;9.118;2023-02-24T11:00:54;8.40;98.00
1155;DHT22;566;48.414;9.118;2023-02-24T11:03:52;8.50;98.00
1155;DHT22;566;48.414;9.118;2023-02-24T11:06:37;8.60;98.00
1155;DHT22;566;48.414;9.118;2023-02-24T11:09:21;8.90;98.00
1155;DHT22;566;48.414;9.118;2023-02-24T11:12:14;9.10;98.00
1155;DHT22;566;48.414;9.118;2023-02-24T11:15:03;9.20;98.00
1155;DHT22;566;48.414;9.118;2023-02-24T11:17:53;9.30;98.00
1155;DHT22;566;48.414;9.118;2023-02-24T11:20:24;9.40;98.00
1155;DHT22;566;48.414;9.118;2023-02-24T11:22:51;9.40;98.00
1155;DHT22;566;48.414;9.118;2023-02-24T11:25:24;9.50;98.00
1155;DHT22;566;48.414;9.118;2023-02-24T11:27:54;9.80;98.00
1155;DHT22;566;48.414;9.118;2023-02-24T11:30:44;9.90;98.00
1155;DHT22;566;48.414;9.118;2023-02-24T11:33:46;10.10;97.90
1155;DHT22;566;48.414;9.118;2023-02-24T11:39:22;10.70;96.70
1155;DHT22;566;48.414;9.118;2023-02-24T11:41:57;11.20;95.50
1155;DHT22;566;48.414;9.118;2023-02-24T11:47:12;11.20;94.50
1155;DHT22;566;48.414;9.118;2023-02-24T11:49:47;10.80;95.00
1155;DHT22;566;48.414;9.118;2023-02-24T11:52:24;10.50;96.10
1155;DHT22;566;48.414;9.118;2023-02-24T11:54:56;10.50;96.60
1155;DHT22;566;48.414;9.118;2023-02-24T11:57:39;10.80;96.60
1155;DHT22;566;48.414;9.118;2023-02-24T12:02:48;10.80;95.30
1155;DHT22;566;48.414;9.118;2023-02-24T12:05:23;10.90;96.20
1155;DHT22;566;48.414;9.118;2023-02-24T12:08:03;11.20;95.50
1155;DHT22;566;48.414;9.118;2023-02-24T12:10:33;11.20;95.20
1155;DHT22;566;48.414;9.118;2023-02-24T12:18:37;10.70;96.60
1155;DHT22;566;48.414;9.118;2023-02-24T12:21:10;10.90;96.00
1155;DHT22;566;48.414;9.118;2023-02-24T12:23:42;11.40;95.00
1155;DHT22;566;48.414;9.118;2023-02-24T12:34:02;10.90;95.00
1155;DHT22;566;48.414;9.118;2023-02-24T12:39:21;10.10;96.80
1155;DHT22;566;48.414;9.118;2023-02-24T12:41:56;9.90;97.10
1155;DHT22;566;48.414;9.118;2023-02-24T12:44:46;10.00;97.60
1155;DHT22;566;48.414;9.118;2023-02-24T12:47:18;10.50;97.10
1155;DHT22;566;48.414;9.118;2023-02-24T12:49:49;10.70;96.50
1155;DHT22;566;48.414;9.118;2023-02-24T12:52:19;10.50;96.60
1155;DHT22;566;48.414;9.118;2023-02-24T12:54:59;10.30;96.80
1155;DHT22;566;48.414;9.118;2023-02-24T13:08:49;11.20;95.40
1155;DHT22;566;48.414;9.118;2023-02-24T13:11:28;11.60;94.60
1155;DHT22;566;48.414;9.118;2023-02-24T13:13:59;11.90;94.20
1155;DHT22;566;48.414;9.118;2023-02-24T13:16:32;12.00;93.20
1155;DHT22;566;48.414;9.118;2023-02-24T13:21:58;10.80;95.50
1155;DHT22;566;48.414;9.118;2023-02-24T13:24:25;10.60;96.60
1155;DHT22;566;48.414;9.118;2023-02-24T13:27:02;10.50;97.10
1155;DHT22;566;48.414;9.118;2023-02-24T13:29:28;10.50;97.20
1155;DHT22;566;48.414;9.118;2023-02-24T13:31:53;10.60;96.70
1155;DHT22;566;48.414;9.118;2023-02-24T13:34:40;10.40;96.90
1155;DHT22;566;48.414;9.118;2023-02-24T13:37:08;10.30;97.40
1155;DHT22;566;48.414;9.118;2023-02-24T13:39:38;10.20;97.60
1155;DHT22;566;48.414;9.118;2023-02-24T13:42:29;10.10;97.50
1155;DHT22;566;48.414;9.118;2023-02-24T13:50:19;9.70;98.00
1155;DHT22;566;48.414;9.118;2023-02-24T13:58:51;9.50;98.00
1155;DHT22;566;48.414;9.118;2023-02-24T14:01:20;9.50;98.00
1155;DHT22;566;48.414;9.118;2023-02-24T14:06:38;9.30;98.00
1155;DHT22;566;48.414;9.118;2023-02-24T14:09:04;9.30;98.00
1155;DHT22;566;48.414;9.118;2023-02-24T14:11:33;9.20;98.00
1155;DHT22;566;48.414;9.118;2023-02-24T14:14:00;9.20;98.00
1155;DHT22;566;48.414;9.118;2023-02-24T14:16:29;9.20;98.00
1155;DHT22;566;48.414;9.118;2023-02-24T14:18:58;9.10;98.00
1155;DHT22;566;48.414;9.118;2023-02-24T14:21:26;9.00;98.00
1155;DHT22;566;48.414;9.118;2023-02-24T14:24:00;9.00;98.00
1155;DHT22;566;48.414;9.118;2023-02-24T14:26:29;9.00;98.00
1155;DHT22;566;48.414;9.118;2023-02-24T14:28:58;9.00;98.00
1155;DHT22;566;48.414;9.118;2023-02-24T14:31:28;9.00;98.00
1155;DHT22;566;48.414;9.118;2023-02-24T14:34:00;9.00;98.00
1155;DHT22;566;48.414;9.118;2023-02-24T14:36:32;9.00;98.00
1155;DHT22;566;48.414;9.118;2023-02-24T14:41:35;9.00;98.00
1155;DHT22;566;48.414;9.118;2023-02-24T14:44:26;9.00;98.00
1155;DHT22;566;48.414;9.118;2023-02-24T14:46:58;8.90;98.00
1155;DHT22;566;48.414;9.118;2023-02-24T14:49:32;8.80;98.00
1155;DHT22;566;48.414;9.118;2023-02-24T14:52:02;8.70;98.00
1155;DHT22;566;48.414;9.118;2023-02-24T14:54:35;8.60;98.00
1155;DHT22;566;48.414;9.118;2023-02-24T14:57:03;8.60;98.00
1155;DHT22;566;48.414;9.118;2023-02-24T14:59:37;8.60;98.00
1155;DHT22;566;48.414;9.118;2023-02-24T15:02:15;8.60;98.00
1155;DHT22;566;48.414;9.118;2023-02-24T15:04:45;8.60;98.00
1155;DHT22;566;48.414;9.118;2023-02-24T15:07:21;8.70;98.00
1155;DHT22;566;48.414;9.118;2023-02-24T15:09:49;8.60;98.00
1155;DHT22;566;48.414;9.118;2023-02-24T15:12:29;8.70;98.00
1155;DHT22;566;48.414;9.118;2023-02-24T15:15:04;8.70;98.00
1155;DHT22;566;48.414;9.118;2023-02-24T15:17:32;8.70;98.00
1155;DHT22;566;48.414;9.118;2023-02-24T15:19:57;8.70;97.90
1155;DHT22;566;48.414;9.118;2023-02-24T15:22:28;8.80;98.00
1155;DHT22;566;48.414;9.118;2023-02-24T15:25:18;8.80;98.00
1155;DHT22;566;48.414;9.118;2023-02-24T15:27:51;8.90;98.00
1155;DHT22;566;48.414;9.118;2023-02-24T15:30:39;9.00;98.00
1155;DHT22;566;48.414;9.118;2023-02-24T15:33:21;9.20;98.00
1155;DHT22;566;48.414;9.118;2023-02-24T15:35:53;9.30;98.00
1155;DHT22;566;48.414;9.118;2023-02-24T15:38:34;9.40;98.00
1155;DHT22;566;48.414;9.118;2023-02-24T15:41:06;9.50;98.00
1155;DHT22;566;48.414;9.118;2023-02-24T15:43:49;9.50;98.00
1155;DHT22;566;48.414;9.118;2023-02-24T15:46:33;9.80;98.00
1155;DHT22;566;48.414;9.118;2023-02-24T15:49:03;9.90;98.00
1155;DHT22;566;48.414;9.118;2023-02-24T15:51:36;10.10;98.00
1155;DHT22;566;48.414;9.118;2023-02-24T15:54:09;10.20;98.00
1155;DHT22;566;48.414;9.118;2023-02-24T15:56:38;10.10;97.90
1155;DHT22;566;48.414;9.118;2023-02-24T15:59:05;9.90;98.00
1155;DHT22;566;48.414;9.118;2023-02-24T16:01:31;9.70;98.00
1155;DHT22;566;48.414;9.118;2023-02-24T16:03:58;9.40;98.00
1155;DHT22;566;48.414;9.118;2023-02-24T16:06:24;9.30;98.00
1155;DHT22;566;48.414;9.118;2023-02-24T16:08:52;9.10;98.00
1155;DHT22;566;48.414;9.118;2023-02-24T16:11:22;9.00;98.00
1155;DHT22;566;48.414;9.118;2023-02-24T16:13:58;9.00;98.00
1155;DHT22;566;48.414;9.118;2023-02-24T16:16:26;8.90;98.00
1155;DHT22;566;48.414;9.118;2023-02-24T16:18:52;8.80;98.00
1155;DHT22;566;48.414;9.118;2023-02-24T16:21:18;8.80;98.00
1155;DHT22;566;48.414;9.118;2023-02-24T16:23:43;8.70;98.00
1155;DHT22;566;48.414;9.118;2023-02-24T16:26:15;8.70;98.00
1155;DHT22;566;48.414;9.118;2023-02-24T16:28:41;8.70;98.00
1155;DHT22;566;48.414;9.118;2023-02-24T16:31:07;8.60;98.00
1155;DHT22;566;48.414;9.118;2023-02-24T16:33:32;8.60;98.00
1155;DHT22;566;48.414;9.118;2023-02-24T16:35:59;8.60;98.00
1155;DHT22;566;48.414;9.118;2023-02-24T16:38:25;8.50;98.00
1155;DHT22;566;48.414;9.118;2023-02-24T16:40:52;8.50;98.00
1155;DHT22;566;48.414;9.118;2023-02-24T16:43:17;8.50;98.00
1155;DHT22;566;48.414;9.118;2023-02-24T16:45:44;8.40;98.00
1155;DHT22;566;48.414;9.118;2023-02-24T16:48:21;8.40;98.00
1155;DHT22;566;48.414;9.118;2023-02-24T16:50:47;8.30;97.90
1155;DHT22;566;48.414;9.118;2023-02-24T16:53:19;8.30;97.60
1155;DHT22;566;48.414;9.118;2023-02-24T16:55:45;8.20;97.10
1155;DHT22;566;48.414;9.118;2023-02-24T16:58:12;8.10;96.10
1155;DHT22;566;48.414;9.118;2023-02-24T17:00:42;8.00;94.80
1155;DHT22;566;48.414;9.118;2023-02-24T17:03:23;7.90;93.60
1155;DHT22;566;48.414;9.118;2023-02-24T17:05:50;7.90;92.90
1155;DHT22;566;48.414;9.118;2023-02-24T17:08:16;7.80;92.00
1155;DHT22;566;48.414;9.118;2023-02-24T17:10:43;7.70;91.70
1155;DHT22;566;48.414;9.118;2023-02-24T17:13:13;7.60;91.30
1155;DHT22;566;48.414;9.118;2023-02-24T17:15:40;7.60;90.60
1155;DHT22;566;48.414;9.118;2023-02-24T17:18:06;7.50;90.00
1155;DHT22;566;48.414;9.118;2023-02-24T17:20:32;7.40;88.70
1155;DHT22;566;48.414;9.118;2023-02-24T17:22:58;7.40;88.60
1155;DHT22;566;48.414;9.118;2023-02-24T17:25:29;7.40;87.50
1155;DHT22;566;48.414;9.118;2023-02-24T17:27:56;7.30;87.10
1155;DHT22;566;48.414;9.118;2023-02-24T17:30:25;7.30;85.80
1155;DHT22;566;48.414;9.118;2023-02-24T17:32:51;7.20;85.10
1155;DHT22;566;48.414;9.118;2023-02-24T17:35:17;7.20;84.30
1155;DHT22;566;48.414;9.118;2023-02-24T17:37:42;7.10;82.60
1155;DHT22;566;48.414;9.118;2023-02-24T17:40:09;7.10;81.20
1155;DHT22;566;48.414;9.118;2023-02-24T17:42:35;7.10;80.90
1155;DHT22;566;48.414;9.118;2023-02-24T17:45:02;7.10;82.00
1155;DHT22;566;48.414;9.118;2023-02-24T17:47:29;7.00;80.80
1155;DHT22;566;48.414;9.118;2023-02-24T17:49:55;7.00;80.00
1155;DHT22;566;48.414;9.118;2023-02-24T17:52:20;7.00;79.90
1155;DHT22;566;48.414;9.118;2023-02-24T17:54:46;7.00;79.80
1155;DHT22;566;48.414;9.118;2023-02-24T17:57:11;7.00;79.60
1155;DHT22;566;48.414;9.118;2023-02-24T17:59:37;7.00;79.60
1155;DHT22;566;48.414;9.118;2023-02-24T18:02:03;7.00;78.90
1155;DHT22;566;48.414;9.118;2023-02-24T18:04:30;7.00;79.80
1155;DHT22;566;48.414;9.118;2023-02-24T18:06:55;7.00;78.80
1155;DHT22;566;48.414;9.118;2023-02-24T18:09:21;7.00;79.10
1155;DHT22;566;48.414;9.118;2023-02-24T18:11:48;7.00;78.10
1155;DHT22;566;48.414;9.118;2023-02-24T18:14:13;7.00;77.80
1155;DHT22;566;48.414;9.118;2023-02-24T18:16:39;7.00;76.60
1155;DHT22;566;48.414;9.118;2023-02-24T18:19:05;7.00;75.90
1155;DHT22;566;48.414;9.118;2023-02-24T18:21:31;7.00;76.20
1155;DHT22;566;48.414;9.118;2023-02-24T18:24:00;6.90;76.20
1155;DHT22;566;48.414;9.118;2023-02-24T18:26:25;6.90;75.70
1155;DHT22;566;48.414;9.118;2023-02-24T18:28:51;6.90;75.70
1155;DHT22;566;48.414;9.118;2023-02-24T18:31:20;6.90;74.60
1155;DHT22;566;48.414;9.118;2023-02-24T18:33:46;6.90;75.00
1155;DHT22;566;48.414;9.118;2023-02-24T18:36:15;6.90;75.60
1155;DHT22;566;48.414;9.118;2023-02-24T18:38:41;6.90;75.50
1155;DHT22;566;48.414;9.118;2023-02-24T18:41:09;6.90;75.10
1155;DHT22;566;48.414;9.118;2023-02-24T18:43:38;6.90;74.80
1155;DHT22;566;48.414;9.118;2023-02-24T18:46:06;6.90;74.90
1155;DHT22;566;48.414;9.118;2023-02-24T18:48:33;6.90;74.80